createdAt,value
2019-04-05T00:01:46.861Z,95.62
2019-04-05T00:04:15.147Z,95.54
2019-04-05T00:06:43.405Z,95.47
2019-04-05T00:09:12.456Z,95.64
2019-04-05T00:11:40.718Z,95.54
2019-04-05T00:14:08.999Z,95.67
2019-04-05T00:16:37.260Z,95.56
2019-04-05T00:19:05.549Z,95.48
2019-04-05T00:21:33.805Z,95.48
2019-04-05T00:24:02.655Z,95.57
2019-04-05T00:26:31.984Z,95.71
2019-04-05T00:29:00.930Z,95.90
2019-04-05T00:31:29.186Z,96.00
2019-04-05T00:33:57.468Z,96.02
2019-04-05T00:36:25.727Z,95.98
2019-04-05T00:38:54.579Z,95.95
2019-04-05T00:41:22.839Z,96.02
2019-04-05T00:43:51.181Z,96.05
2019-04-05T00:46:19.457Z,95.80
2019-04-05T00:48:47.735Z,95.83
2019-04-05T00:51:15.995Z,95.74
2019-04-05T00:53:44.281Z,95.79
2019-04-05T00:56:12.539Z,95.67
2019-04-05T00:58:41.471Z,95.37
2019-04-05T01:01:10.992Z,95.29
2019-04-05T01:03:39.251Z,95.41
2019-04-05T01:06:08.209Z,95.31
2019-04-05T01:08:36.464Z,95.19
2019-04-05T01:11:05.421Z,95.23
2019-04-05T01:13:33.964Z,94.93
2019-04-05T01:16:02.251Z,94.79
2019-04-05T01:18:31.270Z,95.08
2019-04-05T01:21:01.227Z,95.18
2019-04-05T01:23:29.547Z,95.33
2019-04-05T01:25:57.900Z,95.17
2019-04-05T01:28:26.155Z,95.15
2019-04-05T01:30:54.435Z,95.19
2019-04-05T01:33:22.697Z,94.97
2019-04-05T01:35:50.992Z,94.64
2019-04-05T01:38:19.242Z,94.69
2019-04-05T01:40:47.521Z,94.83
2019-04-05T01:43:16.050Z,95.02
2019-04-05T01:45:53.420Z,95.20
2019-04-05T01:48:16.626Z,95.04
2019-04-05T01:50:44.981Z,94.92
2019-04-05T01:53:13.237Z,94.64
2019-04-05T01:55:41.527Z,94.68
2019-04-05T01:58:09.777Z,94.98
2019-04-05T02:00:38.067Z,95.01
2019-04-05T02:03:06.328Z,95.21
2019-04-05T02:05:34.612Z,95.47
2019-04-05T02:08:02.879Z,95.59
2019-04-05T02:10:31.155Z,95.58
2019-04-05T02:12:59.417Z,95.63
2019-04-05T02:15:30.957Z,95.67
2019-04-05T02:17:59.985Z,95.70
2019-04-05T02:20:28.619Z,95.56
2019-04-05T02:22:56.879Z,95.45
2019-04-05T02:25:25.731Z,95.54
2019-04-05T02:27:53.993Z,95.53
2019-04-05T02:30:22.271Z,95.44
2019-04-05T02:32:50.532Z,95.58
2019-04-05T02:35:18.815Z,95.57
2019-04-05T02:37:47.149Z,95.55
2019-04-05T02:40:16.281Z,95.60
2019-04-05T02:42:45.313Z,95.63
2019-04-05T02:45:13.596Z,95.68
2019-04-05T02:47:42.026Z,95.71
2019-04-05T02:50:10.300Z,95.66
2019-04-05T02:52:38.555Z,95.72
2019-04-05T02:55:06.835Z,95.70
2019-04-05T02:57:35.867Z,95.67
2019-04-05T03:00:05.776Z,95.67
2019-04-05T03:02:34.103Z,95.65
2019-04-05T03:05:03.181Z,95.65
2019-04-05T03:07:31.437Z,95.59
2019-04-05T03:09:59.778Z,95.48
2019-04-05T03:12:28.057Z,95.56
2019-04-05T03:14:56.310Z,95.69
2019-04-05T03:17:24.590Z,95.63
2019-04-05T03:19:53.225Z,95.54
2019-04-05T03:22:21.513Z,95.58
2019-04-05T03:24:50.341Z,95.49
2019-04-05T03:27:20.659Z,95.54
2019-04-05T03:29:48.276Z,95.49
2019-04-05T03:32:16.573Z,95.64
2019-04-05T03:34:44.885Z,95.38
2019-04-05T03:37:13.184Z,94.97
2019-04-05T03:39:41.442Z,94.76
2019-04-05T03:42:09.794Z,94.95
2019-04-05T03:44:38.827Z,94.76
2019-04-05T03:47:07.102Z,94.75
2019-04-05T03:49:35.379Z,95.04
2019-04-05T03:52:05.185Z,95.02
2019-04-05T03:54:33.516Z,94.99
2019-04-05T03:57:02.567Z,94.93
2019-04-05T03:59:31.101Z,94.77
2019-04-05T04:01:59.366Z,94.71
2019-04-05T04:04:27.649Z,94.71
2019-04-05T04:06:56.182Z,94.48
2019-04-05T04:09:24.445Z,94.58
2019-04-05T04:11:53.161Z,94.39
2019-04-05T04:14:21.984Z,94.69
2019-04-05T04:16:50.262Z,94.72
2019-04-05T04:19:18.518Z,94.69
2019-04-05T04:21:51.959Z,94.64
2019-04-05T04:24:20.221Z,94.33
2019-04-05T04:26:49.525Z,94.26
2019-04-05T04:29:17.779Z,94.25
2019-04-05T04:31:46.056Z,94.26
2019-04-05T04:34:14.306Z,94.39
2019-04-05T04:36:42.583Z,94.21
2019-04-05T04:39:10.838Z,94.24
2019-04-05T04:41:39.116Z,94.27
2019-04-05T04:44:07.372Z,94.41
2019-04-05T04:46:35.646Z,94.45
2019-04-05T04:49:03.906Z,94.49
2019-04-05T04:51:33.013Z,94.25
2019-04-05T04:54:01.338Z,93.87
2019-04-05T04:56:29.623Z,94.27
2019-04-05T04:58:57.891Z,94.25
2019-04-05T05:01:26.225Z,94.49
2019-04-05T05:03:54.479Z,94.56
2019-04-05T05:06:22.757Z,94.46
2019-04-05T05:08:51.642Z,94.73
2019-04-05T05:11:19.912Z,94.74
2019-04-05T05:13:48.189Z,94.80
2019-04-05T05:16:16.519Z,94.30
2019-04-05T05:18:44.799Z,94.12
2019-04-05T05:21:13.356Z,94.36
2019-04-05T05:23:41.633Z,94.59
2019-04-05T05:26:09.891Z,94.45
2019-04-05T05:28:38.175Z,94.61
2019-04-05T05:31:06.429Z,94.21
2019-04-05T05:33:35.272Z,94.33
2019-04-05T05:36:03.527Z,94.44
2019-04-05T05:38:31.812Z,94.41
2019-04-05T05:41:00.063Z,94.52
2019-04-05T05:43:28.338Z,94.45
2019-04-05T05:45:56.589Z,94.47
2019-04-05T05:48:24.864Z,94.52
2019-04-05T05:50:53.123Z,94.35
2019-04-05T05:53:21.402Z,94.40
2019-04-05T05:55:49.662Z,94.56
2019-04-05T05:58:17.939Z,94.74
2019-04-05T06:00:46.199Z,94.61
2019-04-05T06:03:16.614Z,94.41
2019-04-05T06:05:44.473Z,94.41
2019-04-05T06:08:12.754Z,94.51
2019-04-05T06:10:41.589Z,94.55
2019-04-05T06:13:09.860Z,94.75
2019-04-05T06:15:39.049Z,94.66
2019-04-05T06:18:07.327Z,94.49
2019-04-05T06:20:35.583Z,94.31
2019-04-05T06:23:03.869Z,94.44
2019-04-05T06:25:32.120Z,94.42
2019-04-05T06:28:00.435Z,94.51
2019-04-05T06:30:29.432Z,94.51
2019-04-05T06:32:58.012Z,94.42
2019-04-05T06:35:26.267Z,94.45
2019-04-05T06:37:54.547Z,94.50
2019-04-05T06:40:22.803Z,94.20
2019-04-05T06:42:51.851Z,94.37
2019-04-05T06:45:20.107Z,94.22
2019-04-05T06:47:48.385Z,94.22
2019-04-05T06:50:16.643Z,93.67
2019-04-05T06:52:44.922Z,93.62
2019-04-05T06:55:13.180Z,93.58
2019-04-05T06:57:41.463Z,93.46
2019-04-05T07:00:09.715Z,93.68
2019-04-05T07:02:38.555Z,93.76
2019-04-05T07:05:07.278Z,93.78
2019-04-05T07:07:35.530Z,93.82
2019-04-05T07:10:04.081Z,93.51
2019-04-05T07:12:32.340Z,93.41
2019-04-05T07:15:00.610Z,93.67
2019-04-05T07:17:29.501Z,93.48
2019-04-05T07:19:58.546Z,93.52
2019-04-05T07:22:38.480Z,93.63
2019-04-05T07:24:56.801Z,93.55
2019-04-05T07:27:25.055Z,93.88
2019-04-05T07:29:54.097Z,93.72
2019-04-05T07:32:22.922Z,93.70
2019-04-05T07:34:51.198Z,93.19
2019-04-05T07:37:19.453Z,93.57
2019-04-05T07:39:47.724Z,93.54
2019-04-05T07:42:15.981Z,93.34
2019-04-05T07:44:44.260Z,93.55
2019-04-05T07:47:12.514Z,92.99
2019-04-05T07:49:41.557Z,93.38
2019-04-05T07:52:12.791Z,93.29
2019-04-05T07:54:39.810Z,92.85
2019-04-05T07:57:08.066Z,93.13
2019-04-05T07:59:36.341Z,93.03
2019-04-05T08:02:05.361Z,93.11
2019-04-05T08:04:33.639Z,92.68
2019-04-05T08:07:02.531Z,93.04
2019-04-05T08:09:30.805Z,93.12
2019-04-05T08:11:59.061Z,93.24
2019-04-05T08:14:27.357Z,93.02
2019-04-05T08:16:56.370Z,93.38
2019-04-05T08:19:24.641Z,93.64
2019-04-05T08:21:52.893Z,93.47
2019-04-05T08:24:21.168Z,93.14
2019-04-05T08:26:50.194Z,93.24
2019-04-05T08:29:19.240Z,92.58
2019-04-05T08:31:48.066Z,92.58
2019-04-05T08:34:16.344Z,92.58
2019-04-05T08:36:44.595Z,93.00
2019-04-05T08:39:12.877Z,92.75
2019-04-05T08:41:41.924Z,93.19
2019-04-05T08:44:10.747Z,93.46
2019-04-05T08:46:39.008Z,93.36
2019-04-05T08:49:11.131Z,93.05
2019-04-05T08:51:37.277Z,93.13
2019-04-05T08:54:05.627Z,93.01
2019-04-05T08:56:34.452Z,92.55
2019-04-05T08:59:02.728Z,93.05
2019-04-05T09:01:30.986Z,93.26
2019-04-05T09:03:59.270Z,93.10
2019-04-05T09:06:27.521Z,92.74
2019-04-05T09:08:55.797Z,92.73
2019-04-05T09:11:24.623Z,92.48
2019-04-05T09:13:52.879Z,92.44
2019-04-05T09:16:21.181Z,92.02
2019-04-05T09:18:49.713Z,92.26
2019-04-05T09:21:18.091Z,92.21
2019-04-05T09:23:47.020Z,92.07
2019-04-05T09:26:15.309Z,92.67
2019-04-05T09:28:43.563Z,92.65
2019-04-05T09:31:11.842Z,92.51
2019-04-05T09:33:40.100Z,92.73
2019-04-05T09:36:08.376Z,92.79
2019-04-05T09:38:36.631Z,92.84
2019-04-05T09:41:05.482Z,92.15
2019-04-05T09:43:33.740Z,91.95
2019-04-05T09:46:02.017Z,91.85
2019-04-05T09:48:30.272Z,92.35
2019-04-05T09:50:59.225Z,92.19
2019-04-05T09:53:28.252Z,91.79
2019-04-05T09:55:57.300Z,91.76
2019-04-05T09:58:25.557Z,91.86
2019-04-05T10:00:53.907Z,92.06
2019-04-05T10:03:22.496Z,91.79
2019-04-05T10:05:52.211Z,92.02
2019-04-05T10:08:20.464Z,92.44
2019-04-05T10:10:49.676Z,92.06
2019-04-05T10:13:18.601Z,92.02
2019-04-05T10:15:47.451Z,91.75
2019-04-05T10:18:15.707Z,92.07
2019-04-05T10:20:43.985Z,91.81
2019-04-05T10:23:12.237Z,90.88
2019-04-05T10:25:40.519Z,91.03
2019-04-05T10:28:08.777Z,91.06
2019-04-05T10:30:37.052Z,91.75
2019-04-05T10:33:06.084Z,91.67
2019-04-05T10:35:35.133Z,92.12
2019-04-05T10:38:03.657Z,91.74
2019-04-05T10:40:31.937Z,92.03
2019-04-05T10:43:00.200Z,91.93
2019-04-05T10:45:28.489Z,91.87
2019-04-05T10:47:56.745Z,91.27
2019-04-05T10:50:25.023Z,91.34
2019-04-05T10:52:53.283Z,91.92
2019-04-05T10:55:21.557Z,91.29
2019-04-05T10:57:49.804Z,91.58
2019-04-05T11:00:18.225Z,91.88
2019-04-05T11:02:46.488Z,91.85
2019-04-05T11:05:14.761Z,92.26
2019-04-05T11:07:43.013Z,91.75
2019-04-05T11:10:11.260Z,91.93
2019-04-05T11:12:39.891Z,91.91
2019-04-05T11:15:14.887Z,92.12
2019-04-05T11:17:42.608Z,92.14
2019-04-05T11:20:21.410Z,92.46
2019-04-05T11:22:41.145Z,92.42
2019-04-05T11:25:09.423Z,92.14
2019-04-05T11:27:37.721Z,92.09
2019-04-05T11:30:07.391Z,91.94
2019-04-05T11:32:36.152Z,91.64
2019-04-05T11:35:06.239Z,91.35
2019-04-05T11:37:34.585Z,91.80
2019-04-05T11:40:03.877Z,91.30
2019-04-05T11:42:33.126Z,90.90
2019-04-05T11:45:01.488Z,90.97
2019-04-05T11:47:29.761Z,91.61
2019-04-05T11:49:58.381Z,91.60
2019-04-05T11:52:26.657Z,91.78
2019-04-05T11:54:54.936Z,91.26
2019-04-05T11:57:23.202Z,91.74
2019-04-05T11:59:51.457Z,91.74
2019-04-05T12:02:24.875Z,91.50
2019-04-05T12:04:54.597Z,91.73
2019-04-05T12:07:26.290Z,91.59
2019-04-05T12:09:53.429Z,90.85
2019-04-05T12:12:21.712Z,91.40
2019-04-05T12:14:49.990Z,91.00
2019-04-05T12:17:18.614Z,90.94
2019-04-05T12:19:46.869Z,91.09
2019-04-05T12:22:15.150Z,90.67
2019-04-05T12:24:43.453Z,90.83
2019-04-05T12:27:11.681Z,90.68
2019-04-05T12:29:39.940Z,90.70
2019-04-05T12:32:08.997Z,90.16
2019-04-05T12:34:37.247Z,90.69
2019-04-05T12:37:05.527Z,91.00
2019-04-05T12:39:37.171Z,90.81
2019-04-05T12:42:04.895Z,90.57
2019-04-05T12:44:33.151Z,90.59
2019-04-05T12:47:01.437Z,90.05
2019-04-05T12:49:29.698Z,90.15
2019-04-05T12:51:57.975Z,90.35
2019-04-05T12:54:26.230Z,90.66
2019-04-05T12:56:57.871Z,91.06
2019-04-05T12:59:25.445Z,90.97
2019-04-05T13:01:54.821Z,90.97
2019-04-05T13:04:23.069Z,90.63
2019-04-05T13:06:52.927Z,90.94
2019-04-05T13:09:23.271Z,90.94
2019-04-05T13:11:51.332Z,89.89
2019-04-05T13:14:19.588Z,90.14
2019-04-05T13:16:49.573Z,90.03
2019-04-05T13:19:18.006Z,90.76
2019-04-05T13:21:46.282Z,90.89
2019-04-05T13:24:14.540Z,91.00
2019-04-05T13:26:42.888Z,90.52
2019-04-05T13:29:11.152Z,89.33
2019-04-05T13:31:39.432Z,90.11
2019-04-05T13:34:07.686Z,90.34
2019-04-05T13:36:35.941Z,90.03
2019-04-05T13:39:05.650Z,90.08
2019-04-05T13:41:33.902Z,90.56
2019-04-05T13:44:02.283Z,90.83
2019-04-05T13:46:31.283Z,90.35
2019-04-05T13:48:59.563Z,89.99
2019-04-05T13:51:31.699Z,90.22
2019-04-05T13:53:58.581Z,90.54
2019-04-05T13:56:26.839Z,90.64
2019-04-05T13:58:55.886Z,90.04
2019-04-05T14:01:24.142Z,89.84
2019-04-05T14:03:52.424Z,90.05
2019-04-05T14:06:20.678Z,90.02
2019-04-05T14:08:48.960Z,90.38
2019-04-05T14:11:17.214Z,90.71
2019-04-05T14:13:45.496Z,90.59
2019-04-05T14:16:13.750Z,91.29
2019-04-05T14:18:49.419Z,90.62
2019-04-05T14:21:12.847Z,90.29
2019-04-05T14:23:41.118Z,90.32
2019-04-05T14:26:09.373Z,90.78
2019-04-05T14:28:37.650Z,90.09
2019-04-05T14:31:05.908Z,89.33
2019-04-05T14:33:34.186Z,89.62
2019-04-05T14:36:03.285Z,89.19
2019-04-05T14:38:32.331Z,89.05
2019-04-05T14:41:00.580Z,88.95
2019-04-05T14:43:29.639Z,89.27
2019-04-05T14:45:57.893Z,88.60
2019-04-05T14:48:27.690Z,89.09
2019-04-05T14:50:57.913Z,89.22
2019-04-05T14:53:26.730Z,89.14
2019-04-05T14:55:54.993Z,89.12
2019-04-05T14:58:23.834Z,88.51
2019-04-05T15:00:52.092Z,88.91
2019-04-05T15:03:20.378Z,89.30
2019-04-05T15:05:48.628Z,89.41
2019-04-05T15:08:20.445Z,89.73
2019-04-05T15:10:51.149Z,90.37
2019-04-05T15:13:18.226Z,89.76
2019-04-05T15:15:46.549Z,89.72
2019-04-05T15:18:15.401Z,90.01
2019-04-05T15:20:43.652Z,89.98
2019-04-05T15:23:13.994Z,90.12
2019-04-05T15:25:41.914Z,89.46
2019-04-05T15:28:10.763Z,89.66
2019-04-05T15:30:39.018Z,89.67
2019-04-05T15:33:07.305Z,89.48
2019-04-05T15:35:35.557Z,89.62
2019-04-05T15:38:03.833Z,89.94
2019-04-05T15:40:32.087Z,90.23
2019-04-05T15:43:00.912Z,90.45
2019-04-05T15:45:29.763Z,90.81
2019-04-05T15:47:58.021Z,90.92
2019-04-05T15:50:26.370Z,90.75
2019-04-05T15:52:54.626Z,90.68
2019-04-05T15:55:23.471Z,90.65
2019-04-05T15:57:51.722Z,91.08
2019-04-05T16:00:25.994Z,90.72
2019-04-05T16:02:53.900Z,91.05
2019-04-05T16:05:22.845Z,91.13
2019-04-05T16:07:51.108Z,91.15
2019-04-05T16:10:19.386Z,90.59
2019-04-05T16:12:47.650Z,90.77
2019-04-05T16:15:16.104Z,90.58
2019-04-05T16:17:44.365Z,91.01
2019-04-05T16:20:12.648Z,90.78
2019-04-05T16:22:40.903Z,90.96
2019-04-05T16:25:09.190Z,91.08
2019-04-05T16:27:37.443Z,91.16
2019-04-05T16:30:07.174Z,91.02
2019-04-05T16:32:35.382Z,90.74
2019-04-05T16:35:04.342Z,90.88
2019-04-05T16:37:32.593Z,91.17
2019-04-05T16:40:00.916Z,90.63
2019-04-05T16:42:29.128Z,91.31
2019-04-05T16:44:57.408Z,91.35
2019-04-05T16:47:25.660Z,91.23
2019-04-05T16:49:54.711Z,91.37
2019-04-05T16:52:22.969Z,91.70
2019-04-05T16:54:51.246Z,91.71
2019-04-05T16:57:19.497Z,91.52
2019-04-05T16:59:47.781Z,91.29
2019-04-05T17:02:16.042Z,91.87
2019-04-05T17:04:44.326Z,91.80
2019-04-05T17:07:12.901Z,91.97
2019-04-05T17:09:41.184Z,91.93
2019-04-05T17:12:09.441Z,91.62
2019-04-05T17:14:38.039Z,91.92
2019-04-05T17:17:06.293Z,91.97
2019-04-05T17:19:34.569Z,92.03
2019-04-05T17:22:03.395Z,92.02
2019-04-05T17:24:32.245Z,92.16
2019-04-05T17:27:00.569Z,92.08
2019-04-05T17:29:28.855Z,92.12
2019-04-05T17:31:57.106Z,92.26
2019-04-05T17:34:25.380Z,92.52
2019-04-05T17:36:54.406Z,92.24
2019-04-05T17:39:22.687Z,91.66
2019-04-05T17:41:51.715Z,91.86
2019-04-05T17:44:19.998Z,91.92
2019-04-05T17:46:49.117Z,91.87
2019-04-05T17:49:17.444Z,92.10
2019-04-05T17:51:45.713Z,92.07
2019-04-05T17:54:13.963Z,92.37
2019-04-05T17:56:42.284Z,91.91
2019-04-05T17:59:10.492Z,92.23
2019-04-05T18:01:38.957Z,92.48
2019-04-05T18:04:07.225Z,91.73
2019-04-05T18:06:35.509Z,91.67
2019-04-05T18:09:05.137Z,92.36
2019-04-05T18:11:33.565Z,92.68
2019-04-05T18:14:01.844Z,92.73
2019-04-05T18:16:30.701Z,92.62
2019-04-05T18:18:58.960Z,92.82
2019-04-05T18:21:27.238Z,92.94
2019-04-05T18:23:55.503Z,93.16
2019-04-05T18:26:23.782Z,92.79
2019-04-05T18:28:52.058Z,92.92
2019-04-05T18:31:21.101Z,93.03
2019-04-05T18:33:49.364Z,92.96
2019-04-05T18:36:17.647Z,93.29
2019-04-05T18:38:46.591Z,93.55
2019-04-05T18:41:14.866Z,93.72
2019-04-05T18:43:43.162Z,93.73
2019-04-05T18:46:11.433Z,92.93
2019-04-05T18:48:40.265Z,93.49
2019-04-05T18:51:08.546Z,93.47
2019-04-05T18:53:38.144Z,93.54
2019-04-05T18:56:06.667Z,92.91
2019-04-05T18:58:34.922Z,93.04
2019-04-05T19:01:03.274Z,93.22
2019-04-05T19:03:31.568Z,93.50
2019-04-05T19:05:59.845Z,93.68
2019-04-05T19:08:38.911Z,93.62
2019-04-05T19:10:58.786Z,93.13
2019-04-05T19:13:27.039Z,92.97
2019-04-05T19:15:55.324Z,93.17
2019-04-05T19:18:23.673Z,93.28
2019-04-05T19:20:51.933Z,93.42
2019-04-05T19:23:20.193Z,93.00
2019-04-05T19:25:48.473Z,92.56
2019-04-05T19:28:16.736Z,92.27
2019-04-05T19:48:31.182Z,93.59
2019-04-05T19:50:45.878Z,93.59
2019-04-05T19:53:14.142Z,93.44
2019-04-05T19:55:42.404Z,93.00
2019-04-05T19:58:11.261Z,93.65
2019-04-05T20:00:39.523Z,93.72
2019-04-05T20:03:07.812Z,93.13
2019-04-05T20:05:36.638Z,93.53
2019-04-05T20:08:04.927Z,93.82
2019-04-05T20:10:33.956Z,93.83
2019-04-05T20:13:02.811Z,93.10
2019-04-05T20:15:31.075Z,92.86
2019-04-05T20:17:59.357Z,93.19
2019-04-05T20:20:27.628Z,93.73
2019-04-05T20:22:55.904Z,93.94
2019-04-05T20:25:24.158Z,94.16
2019-04-05T20:27:52.437Z,94.22
2019-04-05T20:30:20.694Z,94.28
2019-04-05T20:32:49.049Z,93.61
2019-04-05T20:35:17.308Z,93.48
2019-04-05T20:37:45.587Z,93.62
2019-04-05T20:40:13.845Z,93.62
2019-04-05T20:42:42.896Z,93.94
2019-04-05T20:45:11.157Z,93.39
2019-04-05T20:47:39.438Z,93.22
2019-04-05T20:50:07.714Z,92.92
2019-04-05T20:52:36.003Z,93.28
2019-04-05T20:55:06.300Z,93.56
2019-04-05T20:57:34.584Z,93.67
2019-04-05T21:00:02.931Z,93.16
2019-04-05T21:02:31.210Z,93.05
2019-04-05T21:05:00.138Z,92.74
2019-04-05T21:07:29.202Z,93.21
2019-04-05T21:09:58.134Z,93.17
2019-04-05T21:12:26.985Z,92.51
2019-04-05T21:14:55.251Z,92.24
2019-04-05T21:17:24.298Z,92.49
2019-04-05T21:19:53.903Z,92.90
2019-04-05T21:22:22.186Z,92.95
2019-04-05T21:24:50.450Z,93.74
2019-04-05T21:27:19.506Z,94.08
2019-04-05T21:29:47.761Z,94.31
2019-04-05T21:32:16.716Z,94.76
2019-04-05T21:34:45.542Z,94.86
2019-04-05T21:37:14.372Z,94.54
2019-04-05T21:39:42.668Z,94.31
2019-04-05T21:42:10.928Z,94.28
2019-04-05T21:44:39.880Z,94.34
2019-04-05T21:47:08.908Z,93.91
2019-04-05T21:49:37.193Z,94.11
2019-04-05T21:52:05.722Z,94.22
2019-04-05T21:54:34.007Z,94.21
2019-04-05T21:57:02.266Z,94.30
2019-04-05T21:59:30.555Z,94.02
2019-04-05T22:01:59.096Z,94.01
2019-04-05T22:04:27.383Z,94.29
2019-04-05T22:06:56.261Z,94.40
2019-04-05T22:09:24.497Z,94.54
2019-04-05T22:11:52.753Z,94.79
2019-04-05T22:14:21.038Z,94.85
2019-04-05T22:16:49.300Z,94.93
2019-04-05T22:19:17.577Z,94.91
2019-04-05T22:21:45.838Z,94.95
2019-04-05T22:24:14.120Z,94.98
2019-04-05T22:26:42.390Z,94.99
2019-04-05T22:29:11.242Z,95.02
2019-04-05T22:31:40.362Z,94.99
2019-04-05T22:34:08.650Z,94.69
2019-04-05T22:36:37.678Z,94.67
2019-04-05T22:39:06.126Z,94.62
2019-04-05T22:41:34.730Z,94.60
2019-04-05T22:44:03.010Z,94.68
2019-04-05T22:46:31.844Z,94.84
2019-04-05T22:49:00.127Z,94.61
2019-04-05T22:51:28.393Z,94.86
2019-04-05T22:53:56.767Z,95.12
2019-04-05T22:56:25.017Z,95.07
2019-04-05T22:58:53.293Z,95.06
2019-04-05T23:01:22.224Z,95.07
2019-04-05T23:03:50.531Z,95.13
2019-04-05T23:06:18.834Z,95.26
2019-04-05T23:08:47.118Z,95.47
2019-04-05T23:11:15.378Z,95.00
2019-04-05T23:13:43.660Z,94.43
2019-04-05T23:16:11.955Z,94.12
2019-04-05T23:18:40.206Z,94.72
2019-04-05T23:21:08.475Z,94.87
2019-04-05T23:23:37.323Z,94.74
2019-04-05T23:26:05.579Z,94.95
2019-04-05T23:28:33.857Z,95.06
2019-04-05T23:31:02.186Z,95.16
2019-04-05T23:33:30.448Z,95.34
2019-04-05T23:35:59.203Z,95.35
2019-04-05T23:38:27.465Z,95.03
2019-04-05T23:40:55.745Z,94.78
2019-04-05T23:43:24.009Z,94.77
2019-04-05T23:45:52.302Z,94.86
2019-04-05T23:48:20.553Z,94.95
2019-04-05T23:50:49.609Z,95.04
2019-04-05T23:53:17.870Z,94.93
2019-04-05T23:55:46.152Z,94.96
2019-04-05T23:58:14.441Z,94.96
